• Join FlightAware (Why Join?)
  • Login
  • US Flag 
07:55PM EDT


 

Airport Tracker/Info


-or-


 

Live Flight TrackerFlight Track Log ✈ SVA1485 ✈ 25-May-2013 ✈ OEPA / AQI - OEJN / JED

Flight Track Log - Related Links

Times and Time Zones

All times are in EDT time to prevent confusion due to time zone crossing. See the SVA1485 flight status page for this flight to view local times or setup timezone preferences in your user account.

Time Position Orientation Groundspeed Altitude Reporting Facility
EDT Latitude Longitude Course Direction KTS MPH feet Rate Location/Type
10:59AM 26.2426 43.8120 225° Southwest  Level Estimated
11:00AM 26.1766 43.7411 224° Southwest  Level Estimated
11:01AM 26.1106 43.6703 224° Southwest  Level Estimated
11:02AM 26.0445 43.5996 224° Southwest  Level Estimated
11:03AM 25.9784 43.5289 224° Southwest  Level Estimated
11:04AM 25.9123 43.4583 224° Southwest  Level Estimated
11:05AM 25.8461 43.3878 224° Southwest  Level Estimated
11:06AM 25.7799 43.3174 224° Southwest  Level Estimated
11:07AM 25.7137 43.2470 224° Southwest  Level Estimated
11:08AM 25.6474 43.1768 224° Southwest  Level Estimated
11:09AM 25.5811 43.1066 224° Southwest  Level Estimated
11:10AM 25.5148 43.0365 224° Southwest  Level Estimated
11:11AM 25.4484 42.9664 224° Southwest  Level Estimated
11:12AM 25.3820 42.8965 224° Southwest  Level Estimated
11:13AM 25.3156 42.8266 224° Southwest  Level Estimated
11:14AM 25.2491 42.7568 224° Southwest  Level Estimated
11:15AM 25.1826 42.6870 224° Southwest  Level Estimated
11:16AM 25.1161 42.6174 223° Southwest  Level Estimated
11:17AM 25.0495 42.5478 223° Southwest  Level Estimated
11:18AM 24.9829 42.4783 223° Southwest  Level Estimated
11:19AM 24.9163 42.4089 223° Southwest  Level Estimated
11:20AM 24.8496 42.3395 223° Southwest  Level Estimated
11:21AM 24.7830 42.2702 223° Southwest  Level Estimated
11:22AM 24.7162 42.2010 223° Southwest  Level Estimated
11:23AM 24.6495 42.1319 223° Southwest  Level Estimated
11:24AM 24.5827 42.0629 223° Southwest  Level Estimated
11:25AM 24.5159 41.9939 223° Southwest  Level Estimated
11:26AM 24.4490 41.9250 223° Southwest  Level Estimated
11:27AM 24.3821 41.8561 223° Southwest  Level Estimated
11:28AM 24.3152 41.7874 223° Southwest  Level Estimated
11:29AM 24.2483 41.7187 223° Southwest  Level Estimated
11:30AM 24.1813 41.6501 223° Southwest  Level Estimated
11:31AM 24.1143 41.5815 223° Southwest  Level Estimated
11:32AM 24.0473 41.5130 223° Southwest  Level Estimated
11:33AM 23.9802 41.4446 223° Southwest  Level Estimated
11:34AM 23.9131 41.3763 223° Southwest  Level Estimated
11:35AM 23.8460 41.3080 223° Southwest  Level Estimated
11:36AM 23.7788 41.2399 223° Southwest  Level Estimated
11:37AM 23.7116 41.1717 223° Southwest  Level Estimated
11:38AM 23.6444 41.1037 223° Southwest  Level Estimated
11:39AM 23.5772 41.0357 223° Southwest  Level Estimated
11:40AM 23.5099 40.9678 223° Southwest  Level Estimated
11:41AM 23.4426 40.9000 223° Southwest  Level Estimated
11:42AM 23.3752 40.8322 223° Southwest  Level Estimated
11:43AM 23.3079 40.7645 223° Southwest  Level Estimated
11:44AM 23.2405 40.6969 223° Southwest  Level Estimated
11:45AM 23.1731 40.6293 223° Southwest  Level Estimated
11:46AM 23.1056 40.5618 223° Southwest  Level Estimated
11:47AM 23.0381 40.4944 223° Southwest  Level Estimated
11:48AM 22.9706 40.4270 223° Southwest  Level Estimated
11:49AM 22.9031 40.3597 223° Southwest  Level Estimated
11:50AM 22.8355 40.2925 223° Southwest  Level Estimated
11:51AM 22.7679 40.2253 223° Southwest  Level Estimated
11:52AM 22.7003 40.1582 222° Southwest  Level Estimated
11:53AM 22.6327 40.0912 222° Southwest  Level Estimated
11:54AM 22.5650 40.0242 222° Southwest  Level Estimated
11:55AM 22.4973 39.9573 222° Southwest  Level Estimated
11:56AM 22.4296 39.8905 222° Southwest  Level Estimated
11:57AM 22.3618 39.8237 222° Southwest  Level Estimated
11:58AM 22.2940 39.7570 222° Southwest  Level Estimated
11:59AM 22.2262 39.6904 222° Southwest  Level Estimated
12:00PM 22.1584 39.6238 222° Southwest  Level Estimated
12:01PM 22.0905 39.5573 222° Southwest  Level Estimated
12:02PM 22.0226 39.4909 222° Southwest  Level Estimated
12:03PM 21.9547 39.4245 222° Southwest  Level Estimated
12:04PM 21.8867 39.3582 222° Southwest  Level Estimated
12:05PM 21.8188 39.2919 222° Southwest  Level Estimated
12:06PM 21.7508 39.2257 222° Southwest  Level Estimated
12:07PM 21.6827 39.1596 222° Southwest  Level Estimated
12:08PM 21.6796 39.1565 222° Southwest  Level Estimated
12:09PM 21.6796 39.1565 317° Northwest  Level Estimated
12:10PM 21.6796 39.1565 317° Northwest  Level Estimated
12:11PM 21.6796 39.1565 317° Northwest  Level Estimated
12:12PM 21.6796 39.1565 317° Northwest  Level Estimated
12:13PM 21.6796 39.1565 317° Northwest  Level Estimated
12:14PM 21.6796 39.1565 317° Northwest  Level Estimated
12:15PM 21.6796 39.1565 317° Northwest  Level Estimated
12:16PM 21.6796 39.1565 317° Northwest  Level Estimated
12:17PM 21.6796 39.1565 317° Northwest  Level Estimated
12:18PM 21.6796 39.1565 317° Northwest  Level Estimated
12:19PM 21.6796 39.1565 317° Northwest  Level Estimated
12:20PM 21.6796 39.1565 317° Northwest  Level Estimated